sensor_id;sensor_type;location;lat;lon;timestamp;pressure;altitude;pressure_sealevel;temperature
6550;BMP280;15142;48.888;9.134;2023-03-14T00:00:08;96451.97;;;10.24
6550;BMP280;15142;48.888;9.134;2023-03-14T00:02:36;96451.72;;;10.18
6550;BMP280;15142;48.888;9.134;2023-03-14T00:05:03;96447.50;;;10.21
6550;BMP280;15142;48.888;9.134;2023-03-14T00:07:33;96442.84;;;10.23
6550;BMP280;15142;48.888;9.134;2023-03-14T00:10:02;96470.13;;;10.31
6550;BMP280;15142;48.888;9.134;2023-03-14T00:12:30;96455.06;;;10.38
6550;BMP280;15142;48.888;9.134;2023-03-14T00:14:56;96453.72;;;10.41
6550;BMP280;15142;48.888;9.134;2023-03-14T00:17:25;96454.47;;;10.41
6550;BMP280;15142;48.888;9.134;2023-03-14T00:19:52;96459.28;;;10.34
6550;BMP280;15142;48.888;9.134;2023-03-14T00:22:19;96448.84;;;10.27
6550;BMP280;15142;48.888;9.134;2023-03-14T00:24:45;96455.44;;;10.28
6550;BMP280;15142;48.888;9.134;2023-03-14T00:27:12;96460.53;;;10.28
6550;BMP280;15142;48.888;9.134;2023-03-14T00:29:39;96448.09;;;10.27
6550;BMP280;15142;48.888;9.134;2023-03-14T00:32:06;96454.06;;;10.31
6550;BMP280;15142;48.888;9.134;2023-03-14T00:34:34;96446.44;;;10.22
6550;BMP280;15142;48.888;9.134;2023-03-14T00:37:00;96460.41;;;10.25
6550;BMP280;15142;48.888;9.134;2023-03-14T00:39:27;96455.75;;;10.18
6550;BMP280;15142;48.888;9.134;2023-03-14T00:41:53;96468.97;;;10.20
6550;BMP280;15142;48.888;9.134;2023-03-14T00:44:21;96462.38;;;10.19
6550;BMP280;15142;48.888;9.134;2023-03-14T00:46:47;96460.41;;;10.17
6550;BMP280;15142;48.888;9.134;2023-03-14T00:49:14;96459.50;;;10.21
6550;BMP280;15142;48.888;9.134;2023-03-14T00:51:43;96461.63;;;10.19
6550;BMP280;15142;48.888;9.134;2023-03-14T00:54:10;96476.16;;;10.18
6550;BMP280;15142;48.888;9.134;2023-03-14T00:56:37;96469.13;;;10.16
6550;BMP280;15142;48.888;9.134;2023-03-14T00:59:03;96478.88;;;10.14
6550;BMP280;15142;48.888;9.134;2023-03-14T01:01:30;96483.34;;;10.17
6550;BMP280;15142;48.888;9.134;2023-03-14T01:03:57;96484.88;;;10.18
6550;BMP280;15142;48.888;9.134;2023-03-14T01:06:25;96483.34;;;10.17
6550;BMP280;15142;48.888;9.134;2023-03-14T01:08:54;96488.00;;;10.15
6550;BMP280;15142;48.888;9.134;2023-03-14T01:11:22;96480.81;;;10.17
6550;BMP280;15142;48.888;9.134;2023-03-14T01:13:50;96483.50;;;10.20
6550;BMP280;15142;48.888;9.134;2023-03-14T01:16:19;96495.59;;;10.31
6550;BMP280;15142;48.888;9.134;2023-03-14T01:18:46;96489.44;;;10.32
6550;BMP280;15142;48.888;9.134;2023-03-14T01:21:17;96483.09;;;10.38
6550;BMP280;15142;48.888;9.134;2023-03-14T01:23:45;96475.31;;;10.43
6550;BMP280;15142;48.888;9.134;2023-03-14T01:26:15;96469.47;;;10.43
6550;BMP280;15142;48.888;9.134;2023-03-14T01:28:44;96459.56;;;10.41
6550;BMP280;15142;48.888;9.134;2023-03-14T01:31:11;96440.84;;;10.37
6550;BMP280;15142;48.888;9.134;2023-03-14T01:33:39;96428.69;;;10.34
6550;BMP280;15142;48.888;9.134;2023-03-14T01:36:09;96430.00;;;10.40
6550;BMP280;15142;48.888;9.134;2023-03-14T01:38:37;96419.78;;;10.48
6550;BMP280;15142;48.888;9.134;2023-03-14T01:41:07;96404.63;;;10.52
6550;BMP280;15142;48.888;9.134;2023-03-14T01:43:35;96394.22;;;10.57
6550;BMP280;15142;48.888;9.134;2023-03-14T01:46:20;96373.22;;;10.60
6550;BMP280;15142;48.888;9.134;2023-03-14T01:48:53;96369.78;;;10.56
6550;BMP280;15142;48.888;9.134;2023-03-14T01:51:25;96355.75;;;10.62
6550;BMP280;15142;48.888;9.134;2023-03-14T01:53:55;96364.72;;;10.68
6550;BMP280;15142;48.888;9.134;2023-03-14T01:56:26;96360.44;;;10.60
6550;BMP280;15142;48.888;9.134;2023-03-14T01:58:55;96370.50;;;10.56
6550;BMP280;15142;48.888;9.134;2023-03-14T02:01:23;96357.97;;;10.51
6550;BMP280;15142;48.888;9.134;2023-03-14T02:03:54;96354.34;;;10.52
6550;BMP280;15142;48.888;9.134;2023-03-14T02:06:24;96358.09;;;10.55
6550;BMP280;15142;48.888;9.134;2023-03-14T02:08:56;96367.38;;;10.59
6550;BMP280;15142;48.888;9.134;2023-03-14T02:11:27;96364.94;;;10.63
6550;BMP280;15142;48.888;9.134;2023-03-14T02:14:25;96357.91;;;10.60
6550;BMP280;15142;48.888;9.134;2023-03-14T02:17:16;96359.19;;;10.66
6550;BMP280;15142;48.888;9.134;2023-03-14T02:20:28;96356.13;;;10.72
6550;BMP280;15142;48.888;9.134;2023-03-14T02:22:58;96344.00;;;10.69
6550;BMP280;15142;48.888;9.134;2023-03-14T02:25:34;96333.94;;;10.73
6550;BMP280;15142;48.888;9.134;2023-03-14T02:28:04;96326.03;;;10.66
6550;BMP280;15142;48.888;9.134;2023-03-14T02:30:32;96334.38;;;10.75
6550;BMP280;15142;48.888;9.134;2023-03-14T02:33:03;96321.34;;;10.68
6550;BMP280;15142;48.888;9.134;2023-03-14T02:35:34;96313.16;;;10.62
6550;BMP280;15142;48.888;9.134;2023-03-14T02:38:07;96325.75;;;10.67
6550;BMP280;15142;48.888;9.134;2023-03-14T02:40:40;96332.22;;;10.65
6550;BMP280;15142;48.888;9.134;2023-03-14T02:43:08;96332.25;;;10.56
6550;BMP280;15142;48.888;9.134;2023-03-14T02:45:42;96321.09;;;10.49
6550;BMP280;15142;48.888;9.134;2023-03-14T02:48:14;96328.44;;;10.62
6550;BMP280;15142;48.888;9.134;2023-03-14T02:50:43;96311.75;;;10.53
6550;BMP280;15142;48.888;9.134;2023-03-14T02:53:13;96311.31;;;10.51
6550;BMP280;15142;48.888;9.134;2023-03-14T02:55:44;96316.09;;;10.52
6550;BMP280;15142;48.888;9.134;2023-03-14T02:58:13;96300.47;;;10.54
6550;BMP280;15142;48.888;9.134;2023-03-14T03:00:40;96299.25;;;10.60
6550;BMP280;15142;48.888;9.134;2023-03-14T03:03:09;96296.44;;;10.53
6550;BMP280;15142;48.888;9.134;2023-03-14T03:05:36;96286.69;;;10.55
6550;BMP280;15142;48.888;9.134;2023-03-14T03:08:03;96280.72;;;10.51
6550;BMP280;15142;48.888;9.134;2023-03-14T03:10:31;96280.88;;;10.46
6550;BMP280;15142;48.888;9.134;2023-03-14T03:12:58;96273.00;;;10.39
6550;BMP280;15142;48.888;9.134;2023-03-14T03:15:28;96276.38;;;10.51
6550;BMP280;15142;48.888;9.134;2023-03-14T03:17:56;96270.81;;;10.49
6550;BMP280;15142;48.888;9.134;2023-03-14T03:20:22;96260.47;;;10.46
6550;BMP280;15142;48.888;9.134;2023-03-14T03:22:49;96258.38;;;10.48
6550;BMP280;15142;48.888;9.134;2023-03-14T03:25:16;96255.59;;;10.41
6550;BMP280;15142;48.888;9.134;2023-03-14T03:27:45;96249.97;;;10.48
6550;BMP280;15142;48.888;9.134;2023-03-14T03:30:15;96249.88;;;10.44
6550;BMP280;15142;48.888;9.134;2023-03-14T03:32:43;96251.00;;;10.35
6550;BMP280;15142;48.888;9.134;2023-03-14T03:35:11;96240.69;;;10.31
6550;BMP280;15142;48.888;9.134;2023-03-14T03:37:39;96256.97;;;10.39
6550;BMP280;15142;48.888;9.134;2023-03-14T03:40:07;96245.03;;;10.31
6550;BMP280;15142;48.888;9.134;2023-03-14T03:42:36;96234.88;;;10.22
6550;BMP280;15142;48.888;9.134;2023-03-14T03:45:06;96239.59;;;10.32
6550;BMP280;15142;48.888;9.134;2023-03-14T03:47:37;96231.97;;;10.32
6550;BMP280;15142;48.888;9.134;2023-03-14T03:50:06;96226.19;;;10.23
6550;BMP280;15142;48.888;9.134;2023-03-14T03:52:33;96234.06;;;10.30
6550;BMP280;15142;48.888;9.134;2023-03-14T03:54:59;96235.47;;;10.28
6550;BMP280;15142;48.888;9.134;2023-03-14T03:57:27;96225.13;;;10.24
6550;BMP280;15142;48.888;9.134;2023-03-14T03:59:55;96230.19;;;10.13
6550;BMP280;15142;48.888;9.134;2023-03-14T04:02:22;96225.72;;;10.10
6550;BMP280;15142;48.888;9.134;2023-03-14T04:04:50;96237.56;;;10.26
6550;BMP280;15142;48.888;9.134;2023-03-14T04:07:18;96225.13;;;10.24
6550;BMP280;15142;48.888;9.134;2023-03-14T04:09:45;96218.63;;;10.15
6550;BMP280;15142;48.888;9.134;2023-03-14T04:12:30;96223.34;;;10.05
6550;BMP280;15142;48.888;9.134;2023-03-14T04:15:04;96215.44;;;9.98
6550;BMP280;15142;48.888;9.134;2023-03-14T04:17:31;96224.88;;;9.97
6550;BMP280;15142;48.888;9.134;2023-03-14T04:19:58;96220.78;;;10.05
6550;BMP280;15142;48.888;9.134;2023-03-14T04:22:34;96219.16;;;10.00
6550;BMP280;15142;48.888;9.134;2023-03-14T04:25:00;96226.13;;;9.91
6550;BMP280;15142;48.888;9.134;2023-03-14T04:27:31;96223.03;;;9.86
6550;BMP280;15142;48.888;9.134;2023-03-14T04:29:59;96221.41;;;9.82
6550;BMP280;15142;48.888;9.134;2023-03-14T04:32:44;96218.56;;;9.83
6550;BMP280;15142;48.888;9.134;2023-03-14T04:35:10;96209.16;;;9.75
6550;BMP280;15142;48.888;9.134;2023-03-14T04:37:38;96207.22;;;9.72
6550;BMP280;15142;48.888;9.134;2023-03-14T04:40:09;96206.53;;;9.63
6550;BMP280;15142;48.888;9.134;2023-03-14T04:42:36;96202.97;;;9.56
6550;BMP280;15142;48.888;9.134;2023-03-14T04:45:05;96197.13;;;9.56
6550;BMP280;15142;48.888;9.134;2023-03-14T04:47:34;96197.00;;;9.52
6550;BMP280;15142;48.888;9.134;2023-03-14T04:50:02;96194.47;;;9.72
6550;BMP280;15142;48.888;9.134;2023-03-14T04:52:29;96183.00;;;9.66
6550;BMP280;15142;48.888;9.134;2023-03-14T04:54:58;96193.09;;;9.63
6550;BMP280;15142;48.888;9.134;2023-03-14T04:57:26;96189.38;;;9.72
6550;BMP280;15142;48.888;9.134;2023-03-14T04:59:54;96179.06;;;9.69
6550;BMP280;15142;48.888;9.134;2023-03-14T05:02:37;96181.63;;;9.69
6550;BMP280;15142;48.888;9.134;2023-03-14T05:05:10;96178.78;;;9.70
6550;BMP280;15142;48.888;9.134;2023-03-14T05:07:45;96181.63;;;9.69
6550;BMP280;15142;48.888;9.134;2023-03-14T05:10:33;96174.91;;;9.64
6550;BMP280;15142;48.888;9.134;2023-03-14T05:13:14;96160.88;;;9.58
6550;BMP280;15142;48.888;9.134;2023-03-14T05:15:53;96163.88;;;9.60
6550;BMP280;15142;48.888;9.134;2023-03-14T05:18:40;96173.16;;;9.56
6550;BMP280;15142;48.888;9.134;2023-03-14T05:21:12;96169.31;;;9.51
6550;BMP280;15142;48.888;9.134;2023-03-14T05:23:54;96162.56;;;9.55
6550;BMP280;15142;48.888;9.134;2023-03-14T05:26:32;96148.34;;;9.54
6550;BMP280;15142;48.888;9.134;2023-03-14T05:29:14;96141.13;;;9.56
6550;BMP280;15142;48.888;9.134;2023-03-14T05:31:55;96143.84;;;9.51
6550;BMP280;15142;48.888;9.134;2023-03-14T05:34:43;96145.00;;;9.61
6550;BMP280;15142;48.888;9.134;2023-03-14T05:37:33;96156.16;;;9.69
6550;BMP280;15142;48.888;9.134;2023-03-14T05:40:20;96154.53;;;9.64
6550;BMP280;15142;48.888;9.134;2023-03-14T05:43:11;96142.25;;;9.66
6550;BMP280;15142;48.888;9.134;2023-03-14T05:45:38;96158.81;;;9.72
6550;BMP280;15142;48.888;9.134;2023-03-14T05:48:24;96154.81;;;9.71
6550;BMP280;15142;48.888;9.134;2023-03-14T05:51:16;96157.38;;;9.71
6550;BMP280;15142;48.888;9.134;2023-03-14T05:53:59;96157.31;;;9.80
6550;BMP280;15142;48.888;9.134;2023-03-14T05:56:44;96156.28;;;9.92
6550;BMP280;15142;48.888;9.134;2023-03-14T05:59:21;96158.31;;;9.87
6550;BMP280;15142;48.888;9.134;2023-03-14T06:02:00;96140.34;;;9.84
6550;BMP280;15142;48.888;9.134;2023-03-14T06:04:33;96150.53;;;9.84
6550;BMP280;15142;48.888;9.134;2023-03-14T06:06:59;96152.81;;;9.77
6550;BMP280;15142;48.888;9.134;2023-03-14T06:09:30;96143.44;;;9.89
6550;BMP280;15142;48.888;9.134;2023-03-14T06:12:00;96140.25;;;9.92
6550;BMP280;15142;48.888;9.134;2023-03-14T06:14:31;96138.59;;;9.96
6550;BMP280;15142;48.888;9.134;2023-03-14T06:16:58;96138.16;;;9.94
6550;BMP280;15142;48.888;9.134;2023-03-14T06:19:27;96135.16;;;9.92
6550;BMP280;15142;48.888;9.134;2023-03-14T06:21:54;96133.69;;;9.91
6550;BMP280;15142;48.888;9.134;2023-03-14T06:24:23;96118.59;;;9.86
6550;BMP280;15142;48.888;9.134;2023-03-14T06:26:51;96128.34;;;9.84
6550;BMP280;15142;48.888;9.134;2023-03-14T06:29:17;96135.41;;;9.99
6550;BMP280;15142;48.888;9.134;2023-03-14T06:31:45;96125.50;;;9.86
6550;BMP280;15142;48.888;9.134;2023-03-14T06:34:14;96124.53;;;9.90
6550;BMP280;15142;48.888;9.134;2023-03-14T06:36:41;96129.69;;;10.02
6550;BMP280;15142;48.888;9.134;2023-03-14T06:39:07;96135.03;;;10.09
6550;BMP280;15142;48.888;9.134;2023-03-14T06:41:38;96131.41;;;10.10
6550;BMP280;15142;48.888;9.134;2023-03-14T06:44:06;96127.31;;;10.17
6550;BMP280;15142;48.888;9.134;2023-03-14T06:46:32;96117.94;;;10.09
6550;BMP280;15142;48.888;9.134;2023-03-14T06:49:01;96115.38;;;10.09
6550;BMP280;15142;48.888;9.134;2023-03-14T06:51:28;96126.34;;;10.21
6550;BMP280;15142;48.888;9.134;2023-03-14T06:53:55;96124.28;;;10.35
6550;BMP280;15142;48.888;9.134;2023-03-14T06:56:24;96130.44;;;10.46
6550;BMP280;15142;48.888;9.134;2023-03-14T06:58:53;96124.19;;;10.55
6550;BMP280;15142;48.888;9.134;2023-03-14T07:01:24;96126.00;;;10.43
6550;BMP280;15142;48.888;9.134;2023-03-14T07:03:52;96111.94;;;10.37
6550;BMP280;15142;48.888;9.134;2023-03-14T07:06:22;96115.25;;;10.38
6550;BMP280;15142;48.888;9.134;2023-03-14T07:08:49;96134.00;;;10.65
6550;BMP280;15142;48.888;9.134;2023-03-14T07:11:17;96132.19;;;10.77
6550;BMP280;15142;48.888;9.134;2023-03-14T07:13:44;96140.94;;;10.88
6550;BMP280;15142;48.888;9.134;2023-03-14T07:16:11;96132.09;;;11.09
6550;BMP280;15142;48.888;9.134;2023-03-14T07:18:38;96144.84;;;11.21
6550;BMP280;15142;48.888;9.134;2023-03-14T07:21:05;96142.59;;;11.32
6550;BMP280;15142;48.888;9.134;2023-03-14T07:23:34;96139.06;;;11.36
6550;BMP280;15142;48.888;9.134;2023-03-14T07:26:01;96141.09;;;11.42
6550;BMP280;15142;48.888;9.134;2023-03-14T07:28:29;96151.38;;;11.58
6550;BMP280;15142;48.888;9.134;2023-03-14T07:31:01;96145.28;;;11.74
6550;BMP280;15142;48.888;9.134;2023-03-14T07:33:30;96156.69;;;11.92
6550;BMP280;15142;48.888;9.134;2023-03-14T07:35:57;96143.38;;;11.71
6550;BMP280;15142;48.888;9.134;2023-03-14T07:38:24;96143.06;;;11.72
6550;BMP280;15142;48.888;9.134;2023-03-14T07:41:09;96137.81;;;11.81
6550;BMP280;15142;48.888;9.134;2023-03-14T07:43:41;96143.34;;;11.83
6550;BMP280;15142;48.888;9.134;2023-03-14T07:46:07;96138.69;;;11.73
6550;BMP280;15142;48.888;9.134;2023-03-14T07:48:34;96144.66;;;11.65
6550;BMP280;15142;48.888;9.134;2023-03-14T07:51:00;96135.75;;;11.59
6550;BMP280;15142;48.888;9.134;2023-03-14T07:53:27;96135.31;;;11.57
6550;BMP280;15142;48.888;9.134;2023-03-14T07:55:54;96137.25;;;11.87
6550;BMP280;15142;48.888;9.134;2023-03-14T07:58:22;96130.47;;;12.06
6550;BMP280;15142;48.888;9.134;2023-03-14T08:00:49;96143.03;;;12.27
6550;BMP280;15142;48.888;9.134;2023-03-14T08:03:16;96144.19;;;12.44
6550;BMP280;15142;48.888;9.134;2023-03-14T08:05:43;96140.81;;;12.71
6550;BMP280;15142;48.888;9.134;2023-03-14T08:08:09;96149.22;;;12.71
6550;BMP280;15142;48.888;9.134;2023-03-14T08:10:36;96136.50;;;12.90
6550;BMP280;15142;48.888;9.134;2023-03-14T08:13:03;96134.84;;;13.13
6550;BMP280;15142;48.888;9.134;2023-03-14T08:15:31;96125.72;;;13.15
6550;BMP280;15142;48.888;9.134;2023-03-14T08:17:58;96120.84;;;13.25
6550;BMP280;15142;48.888;9.134;2023-03-14T08:20:26;96125.59;;;13.27
6550;BMP280;15142;48.888;9.134;2023-03-14T08:22:55;96127.22;;;13.01
6550;BMP280;15142;48.888;9.134;2023-03-14T08:25:23;96123.22;;;12.85
6550;BMP280;15142;48.888;9.134;2023-03-14T08:27:49;96120.94;;;12.64
6550;BMP280;15142;48.888;9.134;2023-03-14T08:30:17;96120.25;;;12.67
6550;BMP280;15142;48.888;9.134;2023-03-14T08:32:45;96118.91;;;13.04
6550;BMP280;15142;48.888;9.134;2023-03-14T08:35:12;96119.50;;;13.31
6550;BMP280;15142;48.888;9.134;2023-03-14T08:37:39;96123.94;;;13.34
6550;BMP280;15142;48.888;9.134;2023-03-14T08:40:07;96131.41;;;13.24
6550;BMP280;15142;48.888;9.134;2023-03-14T08:42:37;96121.47;;;13.04
6550;BMP280;15142;48.888;9.134;2023-03-14T08:45:05;96127.41;;;13.08
6550;BMP280;15142;48.888;9.134;2023-03-14T08:47:32;96129.72;;;13.13
6550;BMP280;15142;48.888;9.134;2023-03-14T08:50:00;96132.53;;;13.26
6550;BMP280;15142;48.888;9.134;2023-03-14T08:52:27;96134.53;;;12.99
6550;BMP280;15142;48.888;9.134;2023-03-14T08:54:53;96131.81;;;12.77
6550;BMP280;15142;48.888;9.134;2023-03-14T08:57:20;96136.22;;;12.61
6550;BMP280;15142;48.888;9.134;2023-03-14T08:59:47;96148.53;;;12.56
6550;BMP280;15142;48.888;9.134;2023-03-14T09:02:13;96145.59;;;12.57
6550;BMP280;15142;48.888;9.134;2023-03-14T09:04:40;96156.09;;;12.83
6550;BMP280;15142;48.888;9.134;2023-03-14T09:07:08;96169.47;;;12.91
6550;BMP280;15142;48.888;9.134;2023-03-14T09:09:35;96170.38;;;12.99
6550;BMP280;15142;48.888;9.134;2023-03-14T09:12:01;96172.50;;;12.97
6550;BMP280;15142;48.888;9.134;2023-03-14T09:14:28;96170.63;;;12.94
6550;BMP280;15142;48.888;9.134;2023-03-14T09:16:54;96174.81;;;12.71
6550;BMP280;15142;48.888;9.134;2023-03-14T09:19:21;96176.78;;;12.32
6550;BMP280;15142;48.888;9.134;2023-03-14T09:21:47;96192.63;;;12.22
6550;BMP280;15142;48.888;9.134;2023-03-14T09:24:15;96188.88;;;12.20
6550;BMP280;15142;48.888;9.134;2023-03-14T09:26:42;96197.81;;;11.98
6550;BMP280;15142;48.888;9.134;2023-03-14T09:29:09;96185.78;;;11.60
6550;BMP280;15142;48.888;9.134;2023-03-14T09:31:36;96188.75;;;11.50
6550;BMP280;15142;48.888;9.134;2023-03-14T09:34:02;96201.72;;;11.57
6550;BMP280;15142;48.888;9.134;2023-03-14T09:36:29;96196.94;;;11.68
6550;BMP280;15142;48.888;9.134;2023-03-14T09:38:56;96204.38;;;11.72
6550;BMP280;15142;48.888;9.134;2023-03-14T09:41:27;96201.19;;;11.75
6550;BMP280;15142;48.888;9.134;2023-03-14T09:44:00;96207.34;;;11.74
6550;BMP280;15142;48.888;9.134;2023-03-14T09:46:28;96201.25;;;11.79
6550;BMP280;15142;48.888;9.134;2023-03-14T09:48:55;96212.31;;;11.95
6550;BMP280;15142;48.888;9.134;2023-03-14T09:51:22;96220.75;;;12.22
6550;BMP280;15142;48.888;9.134;2023-03-14T09:53:50;96222.44;;;12.18
6550;BMP280;15142;48.888;9.134;2023-03-14T09:56:19;96220.63;;;12.19
6550;BMP280;15142;48.888;9.134;2023-03-14T09:58:50;96206.88;;;12.23
6550;BMP280;15142;48.888;9.134;2023-03-14T10:01:22;96183.09;;;12.50
6550;BMP280;15142;48.888;9.134;2023-03-14T10:03:50;96208.75;;;12.53
6550;BMP280;15142;48.888;9.134;2023-03-14T10:06:21;96199.78;;;12.74
6550;BMP280;15142;48.888;9.134;2023-03-14T10:08:50;96201.91;;;13.03
6550;BMP280;15142;48.888;9.134;2023-03-14T10:11:18;96198.13;;;13.12
6550;BMP280;15142;48.888;9.134;2023-03-14T10:14:03;96185.59;;;12.92
6550;BMP280;15142;48.888;9.134;2023-03-14T10:16:31;96160.63;;;12.89
6550;BMP280;15142;48.888;9.134;2023-03-14T10:19:03;96168.69;;;13.21
6550;BMP280;15142;48.888;9.134;2023-03-14T10:21:31;96184.50;;;13.42
6550;BMP280;15142;48.888;9.134;2023-03-14T10:24:19;96180.19;;;13.46
6550;BMP280;15142;48.888;9.134;2023-03-14T10:26:48;96182.41;;;13.14
6550;BMP280;15142;48.888;9.134;2023-03-14T10:29:16;96179.25;;;13.35
6550;BMP280;15142;48.888;9.134;2023-03-14T10:31:50;96176.78;;;13.08
6550;BMP280;15142;48.888;9.134;2023-03-14T10:34:21;96180.69;;;13.17
6550;BMP280;15142;48.888;9.134;2023-03-14T10:36:52;96164.22;;;13.18
6550;BMP280;15142;48.888;9.134;2023-03-14T10:39:29;96170.03;;;12.85
6550;BMP280;15142;48.888;9.134;2023-03-14T10:42:03;96196.78;;;13.03
6550;BMP280;15142;48.888;9.134;2023-03-14T10:44:33;96202.03;;;13.40
6550;BMP280;15142;48.888;9.134;2023-03-14T10:47:02;96186.13;;;13.69
6550;BMP280;15142;48.888;9.134;2023-03-14T10:49:31;96180.91;;;13.62
6550;BMP280;15142;48.888;9.134;2023-03-14T10:52:02;96196.00;;;13.33
6550;BMP280;15142;48.888;9.134;2023-03-14T10:54:30;96195.66;;;13.00
6550;BMP280;15142;48.888;9.134;2023-03-14T10:56:57;96199.59;;;12.67
6550;BMP280;15142;48.888;9.134;2023-03-14T10:59:27;96209.34;;;12.62
6550;BMP280;15142;48.888;9.134;2023-03-14T11:01:58;96212.97;;;12.61
6550;BMP280;15142;48.888;9.134;2023-03-14T11:04:41;96210.91;;;12.24
6550;BMP280;15142;48.888;9.134;2023-03-14T11:07:14;96209.84;;;11.98
6550;BMP280;15142;48.888;9.134;2023-03-14T11:09:46;96214.34;;;11.77
6550;BMP280;15142;48.888;9.134;2023-03-14T11:12:29;96228.53;;;11.75
6550;BMP280;15142;48.888;9.134;2023-03-14T11:15:02;96235.59;;;11.66
6550;BMP280;15142;48.888;9.134;2023-03-14T11:17:37;96236.00;;;11.56
6550;BMP280;15142;48.888;9.134;2023-03-14T11:20:17;96235.16;;;11.52
6550;BMP280;15142;48.888;9.134;2023-03-14T11:22:55;96234.94;;;11.45
6550;BMP280;15142;48.888;9.134;2023-03-14T11:25:30;96239.09;;;11.38
6550;BMP280;15142;48.888;9.134;2023-03-14T11:28:06;96239.59;;;11.08
6550;BMP280;15142;48.888;9.134;2023-03-14T11:30:39;96239.69;;;11.00
6550;BMP280;15142;48.888;9.134;2023-03-14T11:33:14;96239.16;;;10.94
6550;BMP280;15142;48.888;9.134;2023-03-14T11:35:44;96247.88;;;10.93
6550;BMP280;15142;48.888;9.134;2023-03-14T11:38:19;96250.34;;;11.02
6550;BMP280;15142;48.888;9.134;2023-03-14T11:40:51;96245.69;;;11.15
6550;BMP280;15142;48.888;9.134;2023-03-14T11:43:25;96250.91;;;11.31
6550;BMP280;15142;48.888;9.134;2023-03-14T11:45:58;96255.91;;;11.39
6550;BMP280;15142;48.888;9.134;2023-03-14T11:48:36;96268.59;;;11.47
6550;BMP280;15142;48.888;9.134;2023-03-14T11:51:08;96264.72;;;11.30
6550;BMP280;15142;48.888;9.134;2023-03-14T11:53:43;96271.94;;;11.16
6550;BMP280;15142;48.888;9.134;2023-03-14T11:56:18;96264.09;;;11.09
6550;BMP280;15142;48.888;9.134;2023-03-14T11:58:54;96277.03;;;11.04
6550;BMP280;15142;48.888;9.134;2023-03-14T12:01:23;96285.09;;;11.06
6550;BMP280;15142;48.888;9.134;2023-03-14T12:03:58;96283.81;;;11.00
6550;BMP280;15142;48.888;9.134;2023-03-14T12:06:28;96291.19;;;11.02
6550;BMP280;15142;48.888;9.134;2023-03-14T12:08:58;96301.94;;;11.07
6550;BMP280;15142;48.888;9.134;2023-03-14T12:11:34;96310.69;;;11.30
6550;BMP280;15142;48.888;9.134;2023-03-14T12:14:02;96321.16;;;11.37
6550;BMP280;15142;48.888;9.134;2023-03-14T12:16:35;96323.25;;;11.23
6550;BMP280;15142;48.888;9.134;2023-03-14T12:19:26;96320.16;;;11.17
6550;BMP280;15142;48.888;9.134;2023-03-14T12:21:59;96340.91;;;11.28
6550;BMP280;15142;48.888;9.134;2023-03-14T12:24:28;96371.53;;;11.28
6550;BMP280;15142;48.888;9.134;2023-03-14T12:26:56;96370.03;;;11.15
6550;BMP280;15142;48.888;9.134;2023-03-14T12:29:24;96376.16;;;11.02
6550;BMP280;15142;48.888;9.134;2023-03-14T12:32:07;96387.97;;;10.75
6550;BMP280;15142;48.888;9.134;2023-03-14T12:34:39;96413.00;;;10.52
6550;BMP280;15142;48.888;9.134;2023-03-14T12:37:22;96415.22;;;10.34
6550;BMP280;15142;48.888;9.134;2023-03-14T12:39:58;96422.03;;;9.76
6550;BMP280;15142;48.888;9.134;2023-03-14T12:42:40;96439.94;;;9.51
6550;BMP280;15142;48.888;9.134;2023-03-14T12:45:30;96453.28;;;9.23
6550;BMP280;15142;48.888;9.134;2023-03-14T12:48:09;96440.53;;;9.15
6550;BMP280;15142;48.888;9.134;2023-03-14T12:50:43;96468.56;;;9.23
6550;BMP280;15142;48.888;9.134;2023-03-14T12:53:37;96495.53;;;10.48
6550;BMP280;15142;48.888;9.134;2023-03-14T12:56:20;96483.69;;;11.97
6550;BMP280;15142;48.888;9.134;2023-03-14T12:58:54;96477.75;;;12.16
6550;BMP280;15142;48.888;9.134;2023-03-14T13:01:25;96462.91;;;11.86
6550;BMP280;15142;48.888;9.134;2023-03-14T13:03:54;96473.31;;;11.81
6550;BMP280;15142;48.888;9.134;2023-03-14T13:06:51;96485.81;;;12.06
6550;BMP280;15142;48.888;9.134;2023-03-14T13:12:29;96478.06;;;10.67
6550;BMP280;15142;48.888;9.134;2023-03-14T13:14:59;96513.75;;;10.67
6550;BMP280;15142;48.888;9.134;2023-03-14T13:17:31;96517.31;;;10.94
6550;BMP280;15142;48.888;9.134;2023-03-14T13:20:02;96529.84;;;11.07
6550;BMP280;15142;48.888;9.134;2023-03-14T13:22:34;96549.34;;;10.83
6550;BMP280;15142;48.888;9.134;2023-03-14T13:25:06;96565.84;;;10.86
6550;BMP280;15142;48.888;9.134;2023-03-14T13:27:34;96520.97;;;10.65
6550;BMP280;15142;48.888;9.134;2023-03-14T13:30:12;96558.97;;;10.49
6550;BMP280;15142;48.888;9.134;2023-03-14T13:32:43;96575.31;;;10.57
6550;BMP280;15142;48.888;9.134;2023-03-14T13:35:18;96585.34;;;10.53
6550;BMP280;15142;48.888;9.134;2023-03-14T13:37:47;96592.72;;;10.55
6550;BMP280;15142;48.888;9.134;2023-03-14T13:40:23;96594.41;;;10.51
6550;BMP280;15142;48.888;9.134;2023-03-14T13:43:01;96601.47;;;10.37
6550;BMP280;15142;48.888;9.134;2023-03-14T13:45:28;96608.41;;;10.37
6550;BMP280;15142;48.888;9.134;2023-03-14T13:47:54;96607.50;;;10.16
6550;BMP280;15142;48.888;9.134;2023-03-14T13:50:21;96617.25;;;9.97
6550;BMP280;15142;48.888;9.134;2023-03-14T13:52:55;96637.66;;;9.97
6550;BMP280;15142;48.888;9.134;2023-03-14T13:55:21;96649.66;;;9.97
6550;BMP280;15142;48.888;9.134;2023-03-14T13:57:49;96656.41;;;10.10
6550;BMP280;15142;48.888;9.134;2023-03-14T14:00:21;96663.44;;;9.96
6550;BMP280;15142;48.888;9.134;2023-03-14T14:02:52;96682.78;;;9.97
6550;BMP280;15142;48.888;9.134;2023-03-14T14:05:19;96681.28;;;9.96
6550;BMP280;15142;48.888;9.134;2023-03-14T14:07:46;96691.28;;;9.76
6550;BMP280;15142;48.888;9.134;2023-03-14T14:10:14;96695.13;;;9.48
6550;BMP280;15142;48.888;9.134;2023-03-14T14:12:43;96705.97;;;9.62
6550;BMP280;15142;48.888;9.134;2023-03-14T14:15:18;96728.41;;;9.52
6550;BMP280;15142;48.888;9.134;2023-03-14T14:17:49;96732.53;;;9.39
6550;BMP280;15142;48.888;9.134;2023-03-14T14:20:21;96710.22;;;9.36
6550;BMP280;15142;48.888;9.134;2023-03-14T14:22:49;96724.91;;;9.39
6550;BMP280;15142;48.888;9.134;2023-03-14T14:25:17;96739.88;;;9.41
6550;BMP280;15142;48.888;9.134;2023-03-14T14:27:48;96747.22;;;9.42
6550;BMP280;15142;48.888;9.134;2023-03-14T14:30:28;96727.59;;;9.43
6550;BMP280;15142;48.888;9.134;2023-03-14T14:33:12;96747.19;;;9.34
6550;BMP280;15142;48.888;9.134;2023-03-14T14:35:39;96744.03;;;9.28
6550;BMP280;15142;48.888;9.134;2023-03-14T14:38:12;96750.41;;;9.18
6550;BMP280;15142;48.888;9.134;2023-03-14T14:40:48;96768.59;;;9.33
6550;BMP280;15142;48.888;9.134;2023-03-14T14:43:17;96751.66;;;9.28
6550;BMP280;15142;48.888;9.134;2023-03-14T14:45:46;96734.13;;;9.27
6550;BMP280;15142;48.888;9.134;2023-03-14T14:48:13;96743.41;;;9.23